createdAt,value
2023-01-26T00:01:12.511Z,23.52
2023-01-26T00:03:39.011Z,20.52
2023-01-26T00:06:06.218Z,20.83
2023-01-26T00:08:39.557Z,22.63
2023-01-26T00:11:07.180Z,23.67
2023-01-26T00:13:34.139Z,19.50
2023-01-26T00:16:01.159Z,22.48
2023-01-26T00:18:27.563Z,21.67
2023-01-26T00:21:01.699Z,22.60
2023-01-26T00:23:30.092Z,19.77
2023-01-26T00:25:56.548Z,18.17
2023-01-26T00:28:23.105Z,16.45
2023-01-26T00:30:49.505Z,20.55
2023-01-26T00:33:18.382Z,17.08
2023-01-26T00:35:44.809Z,17.58
2023-01-26T00:38:17.251Z,18.98
2023-01-26T00:40:43.702Z,19.92
2023-01-26T00:43:10.161Z,19.13
2023-01-26T00:45:37.914Z,20.42
2023-01-26T00:48:04.426Z,20.10
2023-01-26T00:50:31.306Z,18.33
2023-01-26T00:52:57.683Z,22.35
2023-01-26T00:55:24.531Z,16.17
2023-01-26T00:57:50.945Z,20.20
2023-01-26T01:00:17.821Z,19.92
2023-01-26T01:02:44.542Z,20.48
2023-01-26T01:05:11.277Z,17.38
2023-01-26T01:07:38.972Z,17.15
2023-01-26T01:10:05.495Z,16.83
2023-01-26T01:12:31.871Z,17.45
2023-01-26T01:14:58.272Z,14.82
2023-01-26T01:17:24.669Z,15.55
2023-01-26T01:19:51.035Z,20.48
2023-01-26T01:22:17.440Z,16.73
2023-01-26T01:24:43.833Z,12.85
2023-01-26T01:27:10.376Z,11.27
2023-01-26T01:29:36.827Z,10.50
2023-01-26T01:32:03.264Z,8.50
2023-01-26T01:34:29.733Z,11.05
2023-01-26T01:36:56.281Z,9.50
2023-01-26T01:39:22.647Z,8.77
2023-01-26T01:41:48.992Z,8.70
2023-01-26T01:44:17.774Z,9.80
2023-01-26T01:46:55.317Z,10.57
2023-01-26T01:53:03.925Z,9.43
2023-01-26T01:55:30.312Z,10.07
2023-01-26T01:58:00.121Z,9.13
2023-01-26T02:00:26.894Z,8.75
2023-01-26T02:03:19.105Z,9.32
2023-01-26T02:06:03.587Z,8.27
2023-01-26T02:18:55.904Z,7.50
2023-01-26T02:21:23.140Z,8.20
2023-01-26T02:24:09.742Z,8.38
2023-01-26T02:26:37.045Z,9.68
2023-01-26T02:29:06.707Z,9.45
2023-01-26T02:31:33.088Z,8.95
2023-01-26T02:33:59.490Z,11.63
2023-01-26T02:36:28.328Z,10.85
2023-01-26T02:39:29.848Z,11.63
2023-01-26T02:42:14.800Z,10.07
2023-01-26T02:44:42.232Z,9.02
2023-01-26T02:47:16.815Z,8.30
2023-01-26T02:53:29.649Z,9.27
2023-01-26T03:03:41.505Z,10.50
2023-01-26T03:06:09.457Z,8.20
2023-01-26T03:08:35.884Z,8.63
2023-01-26T03:11:02.323Z,10.60
2023-01-26T03:13:28.654Z,9.38
2023-01-26T03:15:55.144Z,9.45
2023-01-26T03:18:41.525Z,9.93
2023-01-26T03:21:34.583Z,11.32
2023-01-26T03:24:20.056Z,11.18
2023-01-26T03:27:05.082Z,11.88
2023-01-26T03:29:32.555Z,10.68
2023-01-26T03:31:59.274Z,12.02
2023-01-26T03:34:26.325Z,12.73
2023-01-26T03:36:52.688Z,11.60
2023-01-26T03:39:37.526Z,13.23
2023-01-26T03:42:23.474Z,11.80
2023-01-26T03:45:08.347Z,12.80
2023-01-26T03:47:53.900Z,13.20
2023-01-26T03:50:38.912Z,13.75
2023-01-26T03:53:41.806Z,13.20
2023-01-26T03:56:17.890Z,12.38
2023-01-26T03:58:52.828Z,11.52
2023-01-26T04:01:27.585Z,12.48
2023-01-26T04:04:14.932Z,11.27
2023-01-26T04:07:02.390Z,12.05
2023-01-26T04:09:29.193Z,12.05
2023-01-26T04:11:55.523Z,11.35
2023-01-26T04:14:49.903Z,11.65
2023-01-26T04:17:36.554Z,12.95
2023-01-26T04:20:24.678Z,12.02
2023-01-26T04:22:51.094Z,12.85
2023-01-26T04:25:19.556Z,11.98
2023-01-26T04:27:46.187Z,13.35
2023-01-26T04:30:14.789Z,10.98
2023-01-26T04:32:41.293Z,10.98
2023-01-26T04:35:08.559Z,11.50
2023-01-26T04:37:34.939Z,14.15
2023-01-26T04:40:01.540Z,16.08
2023-01-26T04:42:28.040Z,12.48
2023-01-26T04:44:54.663Z,12.25
2023-01-26T04:47:21.472Z,16.40
2023-01-26T04:49:48.019Z,11.60
2023-01-26T04:52:14.912Z,14.40
2023-01-26T04:54:41.688Z,17.35
2023-01-26T04:57:08.386Z,12.35
2023-01-26T04:59:34.738Z,11.27
2023-01-26T05:02:01.100Z,14.13
2023-01-26T05:04:27.715Z,10.98
2023-01-26T05:06:54.119Z,11.57
2023-01-26T05:09:20.484Z,10.00
2023-01-26T05:11:46.822Z,12.93
2023-01-26T05:14:13.150Z,12.65
2023-01-26T05:16:39.588Z,13.38
2023-01-26T05:19:05.954Z,11.15
2023-01-26T05:21:32.331Z,10.30
2023-01-26T05:23:58.699Z,13.48
2023-01-26T05:26:25.133Z,14.30
2023-01-26T05:28:51.482Z,11.40
2023-01-26T05:31:17.942Z,10.90
2023-01-26T05:33:44.368Z,8.23
2023-01-26T05:36:10.712Z,11.20
2023-01-26T05:38:37.089Z,10.68
2023-01-26T05:41:03.511Z,9.85
2023-01-26T05:43:30.562Z,12.73
2023-01-26T05:45:56.974Z,11.52
2023-01-26T05:48:23.344Z,12.30
2023-01-26T05:50:49.698Z,12.00
2023-01-26T05:53:16.062Z,13.05
2023-01-26T05:55:43.191Z,10.50
2023-01-26T05:58:09.657Z,9.80
2023-01-26T06:00:36.011Z,9.88
2023-01-26T06:03:02.396Z,10.75
2023-01-26T06:05:28.763Z,11.13
2023-01-26T06:07:55.086Z,8.80
2023-01-26T06:10:21.555Z,8.75
2023-01-26T06:12:47.952Z,9.80
2023-01-26T06:15:14.378Z,9.45
2023-01-26T06:17:40.979Z,10.98
2023-01-26T06:20:08.609Z,8.27
2023-01-26T06:22:35.026Z,9.02
2023-01-26T06:25:01.610Z,8.43
2023-01-26T06:27:28.629Z,7.95
2023-01-26T06:29:54.977Z,8.65
2023-01-26T06:32:21.371Z,8.27
2023-01-26T06:34:47.736Z,8.65
2023-01-26T06:37:14.132Z,9.05
2023-01-26T06:39:41.514Z,9.40
2023-01-26T06:42:08.445Z,9.77
2023-01-26T06:44:34.794Z,8.45
2023-01-26T06:47:01.301Z,8.73
2023-01-26T06:49:27.671Z,9.32
2023-01-26T06:52:06.117Z,9.50
2023-01-26T06:54:32.532Z,9.52
2023-01-26T06:56:58.950Z,8.63
2023-01-26T06:59:25.709Z,9.75
2023-01-26T07:01:52.084Z,8.68
2023-01-26T07:04:18.498Z,10.63
2023-01-26T07:06:44.869Z,8.10
2023-01-26T07:09:11.388Z,10.23
2023-01-26T07:11:37.847Z,8.68
2023-01-26T07:14:04.442Z,9.02
2023-01-26T07:16:33.537Z,9.45
2023-01-26T07:19:00.150Z,8.27
2023-01-26T07:21:26.538Z,8.80
2023-01-26T07:23:53.286Z,8.05
2023-01-26T07:26:21.047Z,9.10
2023-01-26T07:28:47.587Z,8.77
2023-01-26T07:31:16.147Z,8.30
2023-01-26T07:33:42.673Z,7.07
2023-01-26T07:36:10.825Z,8.38
2023-01-26T07:38:37.235Z,8.95
2023-01-26T07:41:08.999Z,8.85
2023-01-26T07:43:36.525Z,7.32
2023-01-26T07:46:03.294Z,8.98
2023-01-26T07:48:31.058Z,7.47
2023-01-26T07:51:02.137Z,9.32
2023-01-26T07:53:29.928Z,8.23
2023-01-26T07:56:09.265Z,7.25
2023-01-26T07:58:36.031Z,7.47
2023-01-26T08:01:06.463Z,9.25
2023-01-26T08:03:32.823Z,8.18
2023-01-26T08:05:59.145Z,6.88
2023-01-26T08:08:26.306Z,6.85
2023-01-26T08:10:56.006Z,14.70
2023-01-26T08:13:34.389Z,10.75
2023-01-26T08:16:07.264Z,11.55
2023-01-26T08:18:33.700Z,10.38
2023-01-26T08:21:00.431Z,8.85
2023-01-26T08:23:29.002Z,7.53
2023-01-26T08:25:55.477Z,8.77
2023-01-26T08:28:22.559Z,6.80
2023-01-26T08:30:48.997Z,6.93
2023-01-26T08:33:15.388Z,7.30
2023-01-26T08:35:41.717Z,6.47
2023-01-26T08:38:08.101Z,6.97
2023-01-26T08:40:34.523Z,6.53
2023-01-26T08:43:02.479Z,6.35
2023-01-26T08:45:32.014Z,8.52
2023-01-26T08:47:58.451Z,8.85
2023-01-26T08:50:25.552Z,5.90
2023-01-26T08:52:51.885Z,10.93
2023-01-26T08:55:18.271Z,41.72
2023-01-26T08:57:45.508Z,6.30
2023-01-26T09:00:12.979Z,6.43
2023-01-26T09:02:39.757Z,6.93
2023-01-26T09:05:06.737Z,8.00
2023-01-26T09:07:33.090Z,5.95
2023-01-26T09:09:59.481Z,6.55
2023-01-26T09:12:25.875Z,6.70
2023-01-26T09:14:52.280Z,6.53
2023-01-26T09:17:18.658Z,8.15
2023-01-26T09:19:45.140Z,6.53
2023-01-26T09:22:11.571Z,10.35
2023-01-26T09:24:37.957Z,8.18
2023-01-26T09:27:04.399Z,7.97
2023-01-26T09:29:30.782Z,7.90
2023-01-26T09:31:57.227Z,7.18
2023-01-26T09:34:25.211Z,7.95
2023-01-26T09:36:51.723Z,8.80
2023-01-26T09:39:18.125Z,8.40
2023-01-26T09:41:47.459Z,8.00
2023-01-26T09:44:20.727Z,9.73
2023-01-26T09:46:52.825Z,8.27
2023-01-26T09:49:23.720Z,8.32
2023-01-26T09:52:13.398Z,9.25
2023-01-26T09:54:43.703Z,7.22
2023-01-26T09:57:23.516Z,7.25
2023-01-26T10:00:04.558Z,8.90
2023-01-26T10:02:52.635Z,7.65
2023-01-26T10:05:43.506Z,9.48
2023-01-26T10:08:14.874Z,11.90
2023-01-26T10:10:50.869Z,8.65
2023-01-26T10:13:17.816Z,9.02
2023-01-26T10:16:03.848Z,8.52
2023-01-26T10:18:33.531Z,8.75
2023-01-26T10:21:02.607Z,11.55
2023-01-26T10:23:31.370Z,9.90
2023-01-26T10:26:18.537Z,11.73
2023-01-26T10:28:46.603Z,13.13
2023-01-26T10:31:21.312Z,11.43
2023-01-26T10:33:56.864Z,12.23
2023-01-26T10:36:23.555Z,12.23
2023-01-26T10:38:51.547Z,15.18
2023-01-26T10:41:28.898Z,12.23
2023-01-26T10:43:58.275Z,13.27
2023-01-26T10:46:30.943Z,12.77
2023-01-26T10:49:01.008Z,12.30
2023-01-26T10:51:30.448Z,14.60
2023-01-26T10:54:22.721Z,15.10
2023-01-26T10:56:53.247Z,10.80
2023-01-26T10:59:28.488Z,13.35
2023-01-26T11:02:03.847Z,14.05
2023-01-26T11:04:30.472Z,14.18
2023-01-26T11:07:18.409Z,12.35
2023-01-26T11:09:44.810Z,14.15
2023-01-26T11:12:17.861Z,14.77
2023-01-26T11:15:00.165Z,16.17
2023-01-26T11:17:33.320Z,14.57
2023-01-26T11:20:08.659Z,19.35
2023-01-26T11:22:50.299Z,14.05
2023-01-26T11:25:30.827Z,19.55
2023-01-26T11:28:32.462Z,13.40
2023-01-26T11:31:13.689Z,15.77
2023-01-26T11:34:07.544Z,12.07
2023-01-26T11:36:48.597Z,11.13
2023-01-26T11:39:39.646Z,10.60
2023-01-26T11:42:24.113Z,12.82
2023-01-26T11:44:56.601Z,11.77
2023-01-26T11:47:44.375Z,8.60
2023-01-26T11:50:22.755Z,10.27
2023-01-26T11:53:15.884Z,8.38
2023-01-26T11:56:07.599Z,13.32
2023-01-26T11:58:42.748Z,9.90
2023-01-26T12:01:58.631Z,10.30
2023-01-26T12:04:28.473Z,11.35
2023-01-26T12:07:00.220Z,13.73
2023-01-26T12:09:36.808Z,9.98
2023-01-26T12:12:17.618Z,12.55
2023-01-26T12:42:29.895Z,14.65
2023-01-26T12:45:01.697Z,12.48
2023-01-26T12:47:32.219Z,13.48
2023-01-26T12:50:04.273Z,17.88
2023-01-26T12:52:47.119Z,17.25
2023-01-26T12:59:03.739Z,15.57
2023-01-26T13:01:39.153Z,16.95
2023-01-26T13:04:09.926Z,16.00
2023-01-26T13:06:36.361Z,15.18
2023-01-26T13:09:17.732Z,19.33
2023-01-26T13:11:48.085Z,17.65
2023-01-26T13:14:29.343Z,16.27
2023-01-26T13:16:56.450Z,18.02
2023-01-26T13:19:44.374Z,17.17
2023-01-26T13:22:23.708Z,18.63
2023-01-26T13:28:40.362Z,15.20
2023-01-26T13:31:07.351Z,17.45
2023-01-26T13:33:33.790Z,21.73
2023-01-26T13:36:03.706Z,17.20
2023-01-26T13:38:47.823Z,17.55
2023-01-26T13:47:39.786Z,19.08
2023-01-26T13:50:23.586Z,16.38
2023-01-26T13:52:50.192Z,16.05
2023-01-26T13:55:25.278Z,16.23
2023-01-26T13:58:15.658Z,20.02
2023-01-26T14:00:42.072Z,20.27
2023-01-26T14:03:22.131Z,19.95
2023-01-26T14:05:53.904Z,17.17
2023-01-26T14:08:22.391Z,19.00
2023-01-26T14:10:49.359Z,15.98
2023-01-26T14:13:23.083Z,15.32
2023-01-26T14:15:57.687Z,19.13
2023-01-26T14:18:24.409Z,18.55
2023-01-26T14:20:58.878Z,17.92
2023-01-26T14:27:27.122Z,16.98
2023-01-26T14:29:53.563Z,22.77
2023-01-26T14:32:25.332Z,20.58
2023-01-26T14:34:53.803Z,19.55
2023-01-26T14:37:20.233Z,19.10
2023-01-26T14:39:48.052Z,21.35
2023-01-26T14:42:19.244Z,18.48
2023-01-26T14:44:45.948Z,18.90
2023-01-26T14:47:23.298Z,17.17
2023-01-26T14:49:58.058Z,18.88
2023-01-26T14:52:27.363Z,19.52
2023-01-26T14:54:56.421Z,20.63
2023-01-26T14:57:25.889Z,20.00
2023-01-26T14:59:55.888Z,19.92
2023-01-26T15:02:27.578Z,20.67
2023-01-26T15:05:02.818Z,19.35
2023-01-26T15:07:41.295Z,20.85
2023-01-26T15:10:27.924Z,20.80
2023-01-26T15:13:15.292Z,22.23
2023-01-26T15:15:48.630Z,19.77
2023-01-26T15:18:14.971Z,27.45
2023-01-26T15:21:04.914Z,24.10
2023-01-26T15:23:41.511Z,22.60
2023-01-26T15:26:29.361Z,27.42
2023-01-26T15:28:57.642Z,23.50
2023-01-26T15:31:36.975Z,23.45
2023-01-26T15:34:05.018Z,22.75
2023-01-26T15:36:51.248Z,24.85
2023-01-26T15:39:18.674Z,25.83
2023-01-26T15:42:01.699Z,29.02
2023-01-26T15:44:28.260Z,24.23
2023-01-26T15:46:56.382Z,26.08
2023-01-26T15:49:23.392Z,23.70
2023-01-26T15:51:49.751Z,23.23
2023-01-26T15:54:16.262Z,27.20
2023-01-26T15:56:43.033Z,26.33
2023-01-26T15:59:09.353Z,21.67
2023-01-26T16:01:35.749Z,22.65
2023-01-26T16:04:02.070Z,43.30
2023-01-26T16:06:30.510Z,26.00
2023-01-26T16:08:56.963Z,23.58
2023-01-26T16:11:27.917Z,26.13
2023-01-26T16:14:03.335Z,27.35
2023-01-26T16:16:30.843Z,22.23
2023-01-26T16:18:57.293Z,25.08
2023-01-26T16:21:26.403Z,23.00
2023-01-26T16:23:52.794Z,28.48
2023-01-26T16:26:19.583Z,27.08
2023-01-26T16:28:46.317Z,23.13
2023-01-26T16:34:59.293Z,23.13
2023-01-26T16:41:25.760Z,22.58
2023-01-26T16:47:32.427Z,27.42
2023-01-26T16:49:59.391Z,24.50
2023-01-26T16:52:25.759Z,31.30
2023-01-26T16:58:39.845Z,28.00
2023-01-26T17:01:06.878Z,24.38
2023-01-26T17:03:33.272Z,25.15
2023-01-26T17:05:59.606Z,23.77
2023-01-26T17:08:26.046Z,29.70
2023-01-26T17:11:01.940Z,34.58
2023-01-26T17:13:28.679Z,28.85
2023-01-26T17:15:56.346Z,26.98
2023-01-26T17:18:22.962Z,29.23
2023-01-26T17:20:49.295Z,26.80
2023-01-26T17:23:15.654Z,23.77
2023-01-26T17:25:42.037Z,27.15
2023-01-26T17:28:08.509Z,28.35
2023-01-26T17:30:34.993Z,24.08
2023-01-26T17:33:01.852Z,26.10
2023-01-26T17:35:28.174Z,26.73
2023-01-26T17:37:54.531Z,27.33
2023-01-26T17:40:20.891Z,28.48
2023-01-26T17:42:47.271Z,26.50
2023-01-26T17:45:14.036Z,27.50
2023-01-26T17:47:40.548Z,27.42
2023-01-26T17:50:07.514Z,24.27
2023-01-26T17:52:35.385Z,23.80
2023-01-26T17:55:05.058Z,26.95
2023-01-26T17:57:31.632Z,23.75
2023-01-26T17:59:58.026Z,23.05
2023-01-26T18:02:24.892Z,24.92
2023-01-26T18:04:51.360Z,26.30
2023-01-26T18:07:17.695Z,24.05
2023-01-26T18:09:44.059Z,23.55
2023-01-26T18:12:10.422Z,27.40
2023-01-26T18:14:36.847Z,27.42
2023-01-26T18:17:03.228Z,26.63
2023-01-26T18:19:29.662Z,28.27
2023-01-26T18:21:56.009Z,24.05
2023-01-26T18:24:22.469Z,28.02
2023-01-26T18:26:49.252Z,23.20
2023-01-26T18:29:16.573Z,26.35
2023-01-26T18:31:43.383Z,22.90
2023-01-26T18:37:58.073Z,26.58
2023-01-26T18:40:24.898Z,23.65
2023-01-26T18:42:55.466Z,24.15
2023-01-26T18:45:22.005Z,27.33
2023-01-26T18:47:49.536Z,26.30
2023-01-26T18:50:16.804Z,28.15
2023-01-26T18:52:43.182Z,24.20
2023-01-26T18:55:10.584Z,23.48
2023-01-26T18:57:37.267Z,24.70
2023-01-26T19:00:05.547Z,23.30
2023-01-26T19:02:33.536Z,31.27
2023-01-26T19:05:00.700Z,27.80
2023-01-26T19:07:27.020Z,29.70
2023-01-26T19:09:53.386Z,27.67
2023-01-26T19:12:19.734Z,30.83
2023-01-26T19:14:46.108Z,30.67
2023-01-26T19:17:12.908Z,26.58
2023-01-26T19:19:40.996Z,34.72
2023-01-26T19:22:07.911Z,47.90
2023-01-26T19:24:34.317Z,57.33
2023-01-26T19:27:01.295Z,46.03
2023-01-26T19:29:27.785Z,35.83
2023-01-26T19:31:54.360Z,32.00
2023-01-26T19:34:20.747Z,26.77
2023-01-26T19:36:47.275Z,28.73
2023-01-26T19:39:13.754Z,25.90
2023-01-26T19:41:40.439Z,29.58
2023-01-26T19:44:07.231Z,33.00
2023-01-26T19:46:33.655Z,29.40
2023-01-26T19:49:00.016Z,27.25
2023-01-26T19:51:27.026Z,29.88
2023-01-26T19:53:55.424Z,29.20
2023-01-26T19:56:24.657Z,29.40
2023-01-26T19:58:59.768Z,33.72
2023-01-26T20:01:27.845Z,32.25
2023-01-26T20:03:58.757Z,32.13
2023-01-26T20:06:27.921Z,30.40
2023-01-26T20:08:54.994Z,29.17
2023-01-26T20:11:24.995Z,29.33
2023-01-26T20:14:02.882Z,28.25
2023-01-26T20:16:30.050Z,31.77
2023-01-26T20:18:57.440Z,30.85
2023-01-26T20:21:24.709Z,27.52
2023-01-26T20:23:54.863Z,28.80
2023-01-26T20:26:22.812Z,29.70
2023-01-26T20:28:49.218Z,31.00
2023-01-26T20:31:18.305Z,28.70
2023-01-26T20:33:49.609Z,31.67
2023-01-26T20:36:19.012Z,28.80
2023-01-26T20:38:46.355Z,29.77
2023-01-26T20:41:15.696Z,29.73
2023-01-26T20:43:58.175Z,28.77
2023-01-26T20:46:27.753Z,28.17
2023-01-26T20:48:55.542Z,30.33
2023-01-26T20:51:24.928Z,29.20
2023-01-26T20:53:51.344Z,29.88
2023-01-26T20:56:20.367Z,29.38
2023-01-26T20:58:46.751Z,28.45
2023-01-26T21:01:15.472Z,26.05
2023-01-26T21:03:42.038Z,28.60
2023-01-26T21:06:10.060Z,26.65
2023-01-26T21:08:36.948Z,29.10
2023-01-26T21:11:04.576Z,30.30
2023-01-26T21:13:31.013Z,32.63
2023-01-26T21:15:57.374Z,31.83
2023-01-26T21:18:23.792Z,30.45
2023-01-26T21:20:57.430Z,28.73
2023-01-26T21:23:24.187Z,31.45
2023-01-26T21:25:57.291Z,31.95
2023-01-26T21:28:23.685Z,31.48
2023-01-26T21:31:04.293Z,31.75
2023-01-26T21:33:31.991Z,29.27
2023-01-26T21:35:59.505Z,33.05
2023-01-26T21:38:26.497Z,30.45
2023-01-26T21:41:32.491Z,33.17
2023-01-26T21:44:04.018Z,36.35
2023-01-26T21:46:30.665Z,30.77
2023-01-26T21:48:57.152Z,31.92
2023-01-26T21:51:43.123Z,32.70
2023-01-26T21:54:09.806Z,32.33
2023-01-26T21:56:36.267Z,33.67
2023-01-26T21:59:06.046Z,31.98
2023-01-26T22:01:37.098Z,33.90
2023-01-26T22:04:07.481Z,36.08
2023-01-26T22:06:34.648Z,33.88
2023-01-26T22:09:01.284Z,31.77
2023-01-26T22:11:28.386Z,30.27
2023-01-26T22:13:55.005Z,33.45
2023-01-26T22:16:21.539Z,28.42
2023-01-26T22:18:48.772Z,28.85
2023-01-26T22:21:15.713Z,28.13
2023-01-26T22:23:42.493Z,25.83
2023-01-26T22:26:13.560Z,28.92
2023-01-26T22:28:40.640Z,25.02
2023-01-26T22:31:07.640Z,26.35
2023-01-26T22:33:34.895Z,23.45
2023-01-26T22:36:06.148Z,25.35
2023-01-26T22:38:33.233Z,24.73
2023-01-26T22:41:00.333Z,25.42
2023-01-26T22:43:27.193Z,24.27
2023-01-26T22:45:53.775Z,27.88
2023-01-26T22:48:20.744Z,25.25
2023-01-26T22:50:49.527Z,24.35
2023-01-26T22:53:15.898Z,30.33
2023-01-26T22:55:42.983Z,25.48
2023-01-26T22:58:12.075Z,27.83
2023-01-26T23:00:39.252Z,25.77
2023-01-26T23:03:05.833Z,25.60
2023-01-26T23:05:33.648Z,25.75
2023-01-26T23:08:00.732Z,26.05
2023-01-26T23:10:28.002Z,23.60
2023-01-26T23:12:54.491Z,27.30
2023-01-26T23:15:20.890Z,23.67
2023-01-26T23:17:51.586Z,23.08
2023-01-26T23:20:19.522Z,24.45
2023-01-26T23:22:46.144Z,25.38
2023-01-26T23:25:31.386Z,29.13
2023-01-26T23:28:00.845Z,24.95
2023-01-26T23:30:27.234Z,26.52
2023-01-26T23:32:53.584Z,23.90
2023-01-26T23:35:19.954Z,21.88
2023-01-26T23:37:46.407Z,22.67
2023-01-26T23:40:13.481Z,21.27
2023-01-26T23:43:00.274Z,24.50
2023-01-26T23:45:26.367Z,22.85
2023-01-26T23:47:52.826Z,28.15
2023-01-26T23:50:19.166Z,22.95
2023-01-26T23:52:45.532Z,24.02
2023-01-26T23:55:12.004Z,26.42
2023-01-26T23:57:38.417Z,25.38
